»·PEaware :: WAT234 KTUS-KDEN

WAT234 :: KTUS-KDEN

FLIGHT INFORMATION

Flight Status: Arrived
Operator:
Walker Air Transport
More flights by this operator :: More flights under this callsign
Pilot: Eduardo Elias G. (24838)
Aircraft: BOEING 747-400 (WINGLETS)
(B744)
More flights by this aircraft type
Origin: KTUS Tucson Intl
United States
Destination: KDEN Denver Intl
United States
More flights between these airports :: More routes between these airports
Route: +WLDKT3 SSO J104 ONM SHNPS TBARR1
File this flight plan on PilotEdge
Remarks:
Altitude:
(Current/Filed)
39,000ft
Speed:
(Current/Filed)
500kts
Departed: 22-Aug-20 12:56 PM
Arrived: 22-Aug-20 02:27 PM
Distance/Time
Traveled:
555nm/1:31
Distance/Time
To Go:
Arrived

Flight Plot

Page will automatically refresh every two minutes.

Flight plan parsing failed; only flown route is shown


Map Options




Map Legend


Flown Route
Filed Route
Departure Airport
Arrival Airport
Navaid (VOR, NDB)
Fix

Horizontal Profiles

Position Reports

Time Latitude Longitude Heading Altitude Ground
Speed
22-Aug-20 12:24 32.119205 -110.938527 44 2656ft 0kts
22-Aug-20 12:25 32.119205 -110.938527 44 2656ft 0kts
22-Aug-20 12:26 32.119205 -110.938527 44 2656ft 0kts
22-Aug-20 12:27 32.119205 -110.938527 44 2656ft 0kts
22-Aug-20 12:28 32.119205 -110.938527 44 2656ft 0kts
22-Aug-20 12:29 32.119205 -110.938527 44 2656ft 0kts
22-Aug-20 12:30 32.119205 -110.938527 44 2656ft 0kts
22-Aug-20 12:31 32.119205 -110.938527 44 2656ft 0kts
22-Aug-20 12:32 32.119205 -110.938527 44 2656ft 0kts
22-Aug-20 12:33 32.119205 -110.938527 44 2656ft 0kts
22-Aug-20 12:34 32.119205 -110.938527 44 2656ft 0kts
22-Aug-20 12:35 32.119205 -110.938527 44 2656ft 0kts
22-Aug-20 12:36 32.119205 -110.938527 44 2656ft 0kts
22-Aug-20 12:37 32.119205 -110.938527 44 2656ft 0kts
22-Aug-20 12:38 32.119205 -110.938527 44 2656ft 0kts
22-Aug-20 12:39 32.119205 -110.938527 44 2656ft 0kts
22-Aug-20 12:40 32.119205 -110.938527 44 2656ft 0kts
22-Aug-20 12:41 32.119205 -110.938527 44 2656ft 0kts
22-Aug-20 12:42 32.119205 -110.938527 44 2656ft 0kts
22-Aug-20 12:43 32.119205 -110.938527 44 2656ft 0kts
22-Aug-20 12:44 32.119021 -110.938737 44 2656ft 2kts
22-Aug-20 12:45 32.118803 -110.939400 82 2656ft 1kts
22-Aug-20 12:46 32.118784 -110.939559 79 2656ft 0kts
22-Aug-20 12:47 32.118784 -110.939559 79 2656ft 0kts
22-Aug-20 12:48 32.118784 -110.939559 79 2656ft 0kts
22-Aug-20 12:49 32.118927 -110.938982 139 2656ft 0kts
22-Aug-20 12:50 32.117735 -110.939585 160 2656ft 13kts
22-Aug-20 12:51 32.113731 -110.934905 135 2656ft 24kts
22-Aug-20 12:52 32.107577 -110.927655 133 2656ft 26kts
22-Aug-20 12:53 32.103241 -110.922558 146 2656ft 7kts
22-Aug-20 12:54 32.102559 -110.923532 317 2656ft 10kts
22-Aug-20 12:55 32.132515 -110.956637 317 5019ft 182kts
22-Aug-20 12:56 32.172141 -111.007702 317 7488ft 257kts
22-Aug-20 12:57 32.246508 -111.008410 16 10559ft 288kts
22-Aug-20 12:58 32.309872 -110.939218 77 12514ft 370kts
22-Aug-20 12:59 32.315836 -110.814349 87 16206ft 391kts
22-Aug-20 13:00 32.324157 -110.682823 85 19656ft 411kts
22-Aug-20 13:01 32.330292 -110.544040 91 22589ft 433kts
22-Aug-20 13:02 32.323220 -110.400382 93 23039ft 438kts
22-Aug-20 13:03 32.316398 -110.255304 93 24677ft 451kts
22-Aug-20 13:04 32.309816 -110.104252 92 27260ft 468kts
22-Aug-20 13:05 32.302784 -109.947515 92 29497ft 485kts
22-Aug-20 13:06 32.295142 -109.785752 92 31235ft 501kts
22-Aug-20 13:07 32.318998 -109.626548 54 33025ft 499kts
22-Aug-20 13:08 32.405875 -109.506774 46 36036ft 470kts
22-Aug-20 13:09 32.492339 -109.390791 46 37671ft 468kts
22-Aug-20 13:10 32.578289 -109.275038 45 39001ft 466kts
22-Aug-20 13:11 32.665719 -109.156907 45 39060ft 485kts
22-Aug-20 13:13 32.754745 -109.036215 45 39076ft 489kts
22-Aug-20 13:14 32.846079 -108.911972 45 39095ft 505kts
22-Aug-20 13:15 32.938375 -108.785998 45 39119ft 503kts
22-Aug-20 13:16 33.030238 -108.660181 45 39136ft 503kts
22-Aug-20 13:17 33.121693 -108.534483 45 39130ft 503kts
22-Aug-20 13:18 33.213237 -108.408233 45 39134ft 502kts
22-Aug-20 13:19 33.304767 -108.281562 45 39143ft 502kts
22-Aug-20 13:20 33.395842 -108.155074 45 39144ft 502kts
22-Aug-20 13:21 33.486793 -108.028321 45 39146ft 502kts
22-Aug-20 13:22 33.577476 -107.901495 45 39140ft 500kts
22-Aug-20 13:23 33.667865 -107.774631 45 39144ft 500kts
22-Aug-20 13:24 33.758295 -107.647269 45 39144ft 500kts
22-Aug-20 13:25 33.848472 -107.519797 45 39143ft 500kts
22-Aug-20 13:26 33.938331 -107.392352 45 39145ft 499kts
22-Aug-20 13:27 34.028305 -107.264278 46 39147ft 499kts
22-Aug-20 13:28 34.117872 -107.136344 46 39144ft 499kts
22-Aug-20 13:28 34.192764 -107.030146 46 39143ft 498kts
22-Aug-20 13:29 34.282115 -106.901736 46 39146ft 498kts
22-Aug-20 13:31 34.420466 -106.824467 1 39169ft 479kts
22-Aug-20 13:32 34.552966 -106.829222 355 39169ft 475kts
22-Aug-20 13:32 34.663231 -106.835365 355 39177ft 476kts
22-Aug-20 13:33 34.795581 -106.841914 355 39179ft 477kts
22-Aug-20 13:34 34.928116 -106.848354 355 39211ft 477kts
22-Aug-20 13:35 35.061143 -106.854818 355 39210ft 478kts
22-Aug-20 13:36 35.193890 -106.861285 355 39210ft 478kts
22-Aug-20 13:37 35.327185 -106.867799 355 39219ft 478kts
22-Aug-20 13:38 35.456561 -106.836581 25 39241ft 488kts
22-Aug-20 13:39 35.562509 -106.730205 39 39240ft 496kts
22-Aug-20 13:40 35.664963 -106.615973 38 39278ft 495kts
22-Aug-20 13:41 35.791112 -106.575471 351 39290ft 483kts
22-Aug-20 13:42 35.923794 -106.598756 350 39328ft 480kts
22-Aug-20 13:43 36.056166 -106.622669 350 39330ft 481kts
22-Aug-20 13:44 36.188674 -106.646663 350 39331ft 482kts
22-Aug-20 13:45 36.321551 -106.670800 350 39334ft 482kts
22-Aug-20 13:46 36.454521 -106.695037 350 39341ft 483kts
22-Aug-20 13:47 36.587729 -106.719401 350 39353ft 483kts
22-Aug-20 13:48 36.720382 -106.743749 350 39365ft 483kts
22-Aug-20 13:49 36.853351 -106.768240 350 39362ft 483kts
22-Aug-20 13:50 36.986663 -106.792878 350 39376ft 484kts
22-Aug-20 13:51 37.119821 -106.817579 350 39498ft 483kts
22-Aug-20 13:52 37.253112 -106.842382 350 39557ft 484kts
22-Aug-20 13:53 37.386266 -106.867266 350 39707ft 484kts
22-Aug-20 13:54 37.519952 -106.892321 350 39779ft 485kts
22-Aug-20 13:55 37.653352 -106.917426 350 39702ft 485kts
22-Aug-20 13:56 37.786859 -106.942644 350 39644ft 485kts
22-Aug-20 13:57 37.920349 -106.967806 350 39584ft 486kts
22-Aug-20 13:58 38.054440 -106.993350 350 39481ft 489kts
22-Aug-20 13:59 38.181749 -106.950760 37 39419ft 499kts
22-Aug-20 14:00 38.274553 -106.818862 49 39463ft 503kts
22-Aug-20 14:01 38.363431 -106.680871 48 39523ft 501kts
22-Aug-20 14:02 38.452440 -106.545295 47 39611ft 488kts
22-Aug-20 14:03 38.538928 -106.412542 48 39607ft 481kts
22-Aug-20 14:04 38.624388 -106.280063 48 39607ft 483kts
22-Aug-20 14:05 38.710490 -106.148344 47 39607ft 482kts
22-Aug-20 14:06 38.796507 -106.016363 48 39608ft 482kts
22-Aug-20 14:07 38.881321 -105.885574 48 37914ft 470kts
22-Aug-20 14:08 38.964829 -105.756436 49 35145ft 469kts
22-Aug-20 14:09 39.045331 -105.631082 50 32429ft 445kts
22-Aug-20 14:10 39.122142 -105.510659 49 29497ft 426kts
22-Aug-20 14:11 39.195923 -105.394321 49 26591ft 410kts
22-Aug-20 14:12 39.264989 -105.284165 49 24677ft 373kts
22-Aug-20 14:13 39.296951 -105.159303 80 22247ft 365kts
22-Aug-20 14:14 39.310307 -105.036863 79 20034ft 351kts
22-Aug-20 14:15 39.329317 -104.921763 74 19160ft 307kts
22-Aug-20 14:16 39.360895 -104.823792 37 17702ft 295kts
22-Aug-20 14:17 39.429850 -104.767241 28 15634ft 290kts
22-Aug-20 14:18 39.495966 -104.717602 19 13729ft 268kts
22-Aug-20 14:19 39.565115 -104.696581 10 11511ft 245kts
22-Aug-20 14:20 39.629172 -104.689592 358 9942ft 215kts
22-Aug-20 14:21 39.685791 -104.689257 358 8877ft 195kts
22-Aug-20 14:22 39.738489 -104.688665 359 7905ft 179kts
22-Aug-20 14:23 39.785622 -104.688121 0 6956ft 159kts
22-Aug-20 14:24 39.829785 -104.687547 1 6093ft 157kts
22-Aug-20 14:25 39.872420 -104.687144 2 5445ft 129kts
22-Aug-20 14:26 39.886636 -104.685293 27 5444ft 0kts
22-Aug-20 14:27 39.886638 -104.685292 27 5444ft 0kts
22-Aug-20 14:28 39.886640 -104.685290 27 5444ft 0kts
22-Aug-20 14:29 39.885620 -104.684813 180 5444ft 26kts
22-Aug-20 14:30 39.879015 -104.684899 180 5444ft 21kts
22-Aug-20 14:31 39.873700 -104.684932 180 5444ft 17kts
22-Aug-20 14:32 39.868827 -104.685039 180 5444ft 17kts
22-Aug-20 14:33 39.864625 -104.685078 179 5444ft 13kts
22-Aug-20 14:34 39.860268 -104.685076 181 5444ft 16kts
22-Aug-20 14:35 39.856877 -104.683821 86 5444ft 13kts
22-Aug-20 14:36 39.856713 -104.679477 90 5444ft 11kts
22-Aug-20 14:37 39.856807 -104.675797 58 5444ft 9kts
22-Aug-20 14:38 39.858146 -104.675481 359 5444ft 0kts
22-Aug-20 14:39 39.858213 -104.675482 359 5444ft 0kts
22-Aug-20 14:40 39.858213 -104.675482 359 5444ft 0kts

Navigation Log

Ident Type
Flight plan parsing failed, navigation log unavailable